• NOTAM LFQA

     01/12/21 12:26Z - 31/05/22 11:59Z
    E) DISTANCES DECLAREES MODIFIEES PISTE REVETUE 07: TORA: 905M TODA: 965M ASDA: 1090M LDA:895M FIN DE TORA: 245M AVANT L'EXTREMITE PHYSIQUE DE PISTE FIN DE TODA: 185M AVANT L'EXTREMITE PHYSIQUE DE PISTE FIN DE LDA: 60M AVANT L'EXTREMITE PHYSIQUE DE PISTE MODIFICATION CAUSE PRESENCE OBSTACLES CONSTITUES PAR LES ROUTES D944 ET D931

     02/12/21 01:40Z - 31/05/22 11:59Z
    E) DISTANCES DECLAREES MODIFIEES PISTE REVETUE 25 : TORA=995M TODA=1055M ASDA=1090M LDA=765M FIN DE TORA : 155M AVANT EXTREMITE PHYSIQUE DE PISTE FIN DE TODA : 95M AVANT EXTREMITE PHYSIQUE DE PISTE FIN DE LDA : 60M AVANT EXTREMITE PHYSIQUE DE PISTE MODIFICATION CAUSE PRESENCE OBSTACLES CONSTITUES PAR LES ROUTES D944 ET D931

     06/01 12:28Z - 30/06/22 11:59Z
    E) BALISAGE LUMINEUX SUR UNE SEULE BOUCLE. ARRIVEES IFR PREVOIR UN DEGAGEMENT VERS UN AD ACCESSIBLE ET CONFORME

     06/01 12:33Z - 30/06/22 11:59Z
    E) TWY PARALLELE ENTRE LA SORTIE SUD-EST DU PARKING TOUR ET LE POINT D'ATTENTE 25 INTERDIT AUX AERONEFS DONT LA LARGEUR DE TRAIN D'ATTERRISSAGE EST SUPERIEURE OU EGALE A 4.5M

     27/04 11:14Z - 31/05/22 05:00Z
    E) SERVICE DE PREVENTION DU PERIL ANIMALIER NON ASSURE.











  • PHOTOS SATELLITE

CARTE TEMSI

CARTE WINTEM

  • Vent au sol

  • Vent à 2000ft

  • ANIMATION RADAR

  • METAR/TAF LFQA (REIMS / Prunay)

    LFQA 230500Z AUTO 08007KT CAVOK 13/13 Q1003

    METAR/TAF LFOK (CHALONS / Vatry)

    LFOK 230500Z AUTO VRB02KT CAVOK 14/13 Q1003 TEMPO 22015G25KT 3000 SHRA BKN015 BKN030CB

    TAF AMD LFOK 230002Z 2300/2324 06010KT CAVOK TEMPO 2300/2306 3000 SHRA BKN050CB TEMPO 2300/2303 TSRA TEMPO 2306/2316 22015G25KT 3000 SHRA BKN015 BKN030CB PROB30 TEMPO 2306/2316 TSRA TEMPO 2321/2324 24010KT 3000 RA

RESERVATION

  • COMM' FFA

    FLASH SV : L'été arrive et les grandes chaleurs aussi !!!